sensor_id;sensor_type;location;lat;lon;timestamp;pressure;altitude;pressure_sealevel;temperature;humidity
72959;BME280;60008;50.826;6.896;2022-10-16T00:00:25;100584.59;;;13.56;100.00
72959;BME280;60008;50.826;6.896;2022-10-16T00:03:10;100584.94;;;13.53;100.00
72959;BME280;60008;50.826;6.896;2022-10-16T00:05:59;100580.66;;;13.52;100.00
72959;BME280;60008;50.826;6.896;2022-10-16T00:08:46;100580.81;;;13.51;100.00
72959;BME280;60008;50.826;6.896;2022-10-16T00:11:33;100583.47;;;13.51;100.00
72959;BME280;60008;50.826;6.896;2022-10-16T00:14:20;100586.72;;;13.46;100.00
72959;BME280;60008;50.826;6.896;2022-10-16T00:17:06;100578.25;;;13.43;100.00
72959;BME280;60008;50.826;6.896;2022-10-16T00:19:50;100579.38;;;13.34;100.00
72959;BME280;60008;50.826;6.896;2022-10-16T00:22:36;100596.53;;;13.31;100.00
72959;BME280;60008;50.826;6.896;2022-10-16T00:25:21;100595.06;;;13.29;100.00
72959;BME280;60008;50.826;6.896;2022-10-16T00:28:06;100588.44;;;13.25;100.00
72959;BME280;60008;50.826;6.896;2022-10-16T00:30:51;100595.94;;;13.21;100.00
72959;BME280;60008;50.826;6.896;2022-10-16T00:33:38;100595.03;;;13.14;100.00
72959;BME280;60008;50.826;6.896;2022-10-16T00:36:25;100600.06;;;13.09;100.00
72959;BME280;60008;50.826;6.896;2022-10-16T00:39:10;100586.78;;;13.01;100.00
72959;BME280;60008;50.826;6.896;2022-10-16T00:41:55;100575.53;;;12.99;100.00
72959;BME280;60008;50.826;6.896;2022-10-16T00:45:01;100586.03;;;12.92;100.00
72959;BME280;60008;50.826;6.896;2022-10-16T00:47:47;100585.91;;;12.86;100.00
72959;BME280;60008;50.826;6.896;2022-10-16T00:50:34;100586.09;;;12.84;100.00
72959;BME280;60008;50.826;6.896;2022-10-16T00:53:19;100591.13;;;12.79;100.00
72959;BME280;60008;50.826;6.896;2022-10-16T00:56:05;100593.31;;;12.76;100.00
72959;BME280;60008;50.826;6.896;2022-10-16T00:58:50;100585.69;;;12.73;100.00
72959;BME280;60008;50.826;6.896;2022-10-16T01:01:35;100580.09;;;12.68;100.00
72959;BME280;60008;50.826;6.896;2022-10-16T01:04:21;100574.84;;;12.60;100.00
72959;BME280;60008;50.826;6.896;2022-10-16T01:07:31;100590.66;;;12.53;100.00
72959;BME280;60008;50.826;6.896;2022-10-16T01:10:30;100585.88;;;12.48;100.00
72959;BME280;60008;50.826;6.896;2022-10-16T01:16:27;100589.41;;;12.41;100.00
72959;BME280;60008;50.826;6.896;2022-10-16T01:19:26;100598.28;;;12.33;100.00
72959;BME280;60008;50.826;6.896;2022-10-16T01:22:18;100603.63;;;12.25;100.00
72959;BME280;60008;50.826;6.896;2022-10-16T01:25:11;100607.94;;;12.26;100.00
72959;BME280;60008;50.826;6.896;2022-10-16T01:27:59;100600.31;;;12.23;100.00
72959;BME280;60008;50.826;6.896;2022-10-16T01:30:46;100602.47;;;12.28;100.00
72959;BME280;60008;50.826;6.896;2022-10-16T01:33:39;100604.97;;;12.21;100.00
72959;BME280;60008;50.826;6.896;2022-10-16T01:36:32;100592.88;;;12.19;100.00
72959;BME280;60008;50.826;6.896;2022-10-16T01:39:23;100605.00;;;12.13;100.00
72959;BME280;60008;50.826;6.896;2022-10-16T01:42:14;100609.38;;;12.06;100.00
72959;BME280;60008;50.826;6.896;2022-10-16T01:45:02;100609.72;;;12.03;100.00
72959;BME280;60008;50.826;6.896;2022-10-16T01:47:52;100600.63;;;11.98;100.00
72959;BME280;60008;50.826;6.896;2022-10-16T01:50:39;100608.06;;;12.02;100.00
72959;BME280;60008;50.826;6.896;2022-10-16T01:53:26;100605.94;;;11.98;100.00
72959;BME280;60008;50.826;6.896;2022-10-16T01:56:12;100616.38;;;11.99;100.00
72959;BME280;60008;50.826;6.896;2022-10-16T01:59:10;100613.41;;;11.94;100.00
72959;BME280;60008;50.826;6.896;2022-10-16T02:01:59;100606.63;;;11.91;100.00
72959;BME280;60008;50.826;6.896;2022-10-16T02:04:53;100608.09;;;11.94;100.00
72959;BME280;60008;50.826;6.896;2022-10-16T02:07:39;100610.06;;;12.00;100.00
72959;BME280;60008;50.826;6.896;2022-10-16T02:10:26;100612.19;;;12.05;100.00
72959;BME280;60008;50.826;6.896;2022-10-16T02:13:19;100623.81;;;12.12;100.00
72959;BME280;60008;50.826;6.896;2022-10-16T02:16:07;100623.31;;;12.08;100.00
72959;BME280;60008;50.826;6.896;2022-10-16T02:18:52;100618.78;;;12.17;100.00
72959;BME280;60008;50.826;6.896;2022-10-16T02:21:58;100621.91;;;12.20;100.00
72959;BME280;60008;50.826;6.896;2022-10-16T02:24:58;100610.00;;;12.16;100.00
72959;BME280;60008;50.826;6.896;2022-10-16T02:27:55;100614.97;;;12.19;100.00
72959;BME280;60008;50.826;6.896;2022-10-16T02:30:45;100616.44;;;12.22;100.00
72959;BME280;60008;50.826;6.896;2022-10-16T02:33:34;100621.06;;;12.28;100.00
72959;BME280;60008;50.826;6.896;2022-10-16T02:36:22;100621.91;;;12.28;100.00
72959;BME280;60008;50.826;6.896;2022-10-16T02:39:08;100634.66;;;12.33;100.00
72959;BME280;60008;50.826;6.896;2022-10-16T02:41:53;100623.97;;;12.41;100.00
72959;BME280;60008;50.826;6.896;2022-10-16T02:44:38;100636.03;;;12.51;100.00
72959;BME280;60008;50.826;6.896;2022-10-16T02:47:23;100621.63;;;12.69;100.00
72959;BME280;60008;50.826;6.896;2022-10-16T02:50:08;100628.03;;;12.82;100.00
72959;BME280;60008;50.826;6.896;2022-10-16T02:52:54;100637.31;;;13.09;100.00
72959;BME280;60008;50.826;6.896;2022-10-16T02:55:39;100636.53;;;13.23;100.00
72959;BME280;60008;50.826;6.896;2022-10-16T02:58:24;100640.00;;;13.24;100.00
72959;BME280;60008;50.826;6.896;2022-10-16T03:01:09;100633.66;;;13.25;100.00
72959;BME280;60008;50.826;6.896;2022-10-16T03:03:54;100628.53;;;13.23;100.00
72959;BME280;60008;50.826;6.896;2022-10-16T03:06:39;100624.03;;;13.24;100.00
72959;BME280;60008;50.826;6.896;2022-10-16T03:09:24;100616.44;;;13.21;100.00
72959;BME280;60008;50.826;6.896;2022-10-16T03:12:09;100615.25;;;13.23;100.00
72959;BME280;60008;50.826;6.896;2022-10-16T03:14:56;100609.38;;;13.28;100.00
72959;BME280;60008;50.826;6.896;2022-10-16T03:17:41;100604.69;;;13.30;100.00
72959;BME280;60008;50.826;6.896;2022-10-16T03:20:27;100599.72;;;13.27;100.00
72959;BME280;60008;50.826;6.896;2022-10-16T03:23:13;100609.16;;;13.29;100.00
72959;BME280;60008;50.826;6.896;2022-10-16T03:25:57;100616.34;;;13.29;100.00
72959;BME280;60008;50.826;6.896;2022-10-16T03:28:43;100614.97;;;13.33;100.00
72959;BME280;60008;50.826;6.896;2022-10-16T03:31:29;100614.59;;;13.36;100.00
72959;BME280;60008;50.826;6.896;2022-10-16T03:34:14;100611.47;;;13.32;100.00
72959;BME280;60008;50.826;6.896;2022-10-16T03:36:59;100604.31;;;13.33;100.00
72959;BME280;60008;50.826;6.896;2022-10-16T03:39:45;100602.28;;;13.35;100.00
72959;BME280;60008;50.826;6.896;2022-10-16T03:42:30;100619.09;;;13.35;100.00
72959;BME280;60008;50.826;6.896;2022-10-16T03:45:16;100619.72;;;13.37;100.00
72959;BME280;60008;50.826;6.896;2022-10-16T03:48:01;100622.03;;;13.40;100.00
72959;BME280;60008;50.826;6.896;2022-10-16T03:50:48;100628.56;;;13.38;100.00
72959;BME280;60008;50.826;6.896;2022-10-16T03:53:33;100638.19;;;13.39;100.00
72959;BME280;60008;50.826;6.896;2022-10-16T03:56:18;100656.28;;;13.43;100.00
72959;BME280;60008;50.826;6.896;2022-10-16T03:59:03;100652.00;;;13.42;100.00
72959;BME280;60008;50.826;6.896;2022-10-16T04:01:48;100664.28;;;13.43;100.00
72959;BME280;60008;50.826;6.896;2022-10-16T04:04:33;100663.75;;;13.48;100.00
72959;BME280;60008;50.826;6.896;2022-10-16T04:07:18;100662.16;;;13.53;100.00
72959;BME280;60008;50.826;6.896;2022-10-16T04:10:04;100658.50;;;13.54;100.00
72959;BME280;60008;50.826;6.896;2022-10-16T04:12:49;100652.56;;;13.52;100.00
72959;BME280;60008;50.826;6.896;2022-10-16T04:15:34;100645.13;;;13.48;100.00
72959;BME280;60008;50.826;6.896;2022-10-16T04:18:19;100656.75;;;13.47;100.00
72959;BME280;60008;50.826;6.896;2022-10-16T04:21:05;100660.06;;;13.49;100.00
72959;BME280;60008;50.826;6.896;2022-10-16T04:23:51;100661.91;;;13.48;100.00
72959;BME280;60008;50.826;6.896;2022-10-16T04:26:36;100670.63;;;13.42;100.00
72959;BME280;60008;50.826;6.896;2022-10-16T04:29:21;100669.50;;;13.37;100.00
72959;BME280;60008;50.826;6.896;2022-10-16T04:32:08;100667.63;;;13.23;100.00
72959;BME280;60008;50.826;6.896;2022-10-16T04:34:53;100675.97;;;13.20;100.00
72959;BME280;60008;50.826;6.896;2022-10-16T04:37:38;100669.19;;;13.17;100.00
72959;BME280;60008;50.826;6.896;2022-10-16T04:40:23;100676.53;;;13.15;100.00
72959;BME280;60008;50.826;6.896;2022-10-16T04:43:08;100676.03;;;13.11;100.00
72959;BME280;60008;50.826;6.896;2022-10-16T04:45:54;100677.22;;;13.09;100.00
72959;BME280;60008;50.826;6.896;2022-10-16T04:48:39;100674.38;;;13.10;100.00
72959;BME280;60008;50.826;6.896;2022-10-16T04:51:24;100682.88;;;13.06;100.00
72959;BME280;60008;50.826;6.896;2022-10-16T04:54:10;100694.56;;;12.97;100.00
72959;BME280;60008;50.826;6.896;2022-10-16T04:56:55;100693.63;;;12.90;100.00
72959;BME280;60008;50.826;6.896;2022-10-16T04:59:40;100691.31;;;12.87;100.00
72959;BME280;60008;50.826;6.896;2022-10-16T05:02:25;100702.94;;;12.86;100.00
72959;BME280;60008;50.826;6.896;2022-10-16T05:05:10;100709.44;;;12.83;100.00
72959;BME280;60008;50.826;6.896;2022-10-16T05:07:56;100712.78;;;12.85;100.00
72959;BME280;60008;50.826;6.896;2022-10-16T05:10:42;100698.13;;;12.89;100.00
72959;BME280;60008;50.826;6.896;2022-10-16T05:13:27;100697.22;;;12.97;100.00
72959;BME280;60008;50.826;6.896;2022-10-16T05:16:12;100706.69;;;12.99;100.00
72959;BME280;60008;50.826;6.896;2022-10-16T05:18:57;100708.53;;;12.99;100.00
72959;BME280;60008;50.826;6.896;2022-10-16T05:22:02;100719.00;;;13.00;100.00
72959;BME280;60008;50.826;6.896;2022-10-16T05:24:47;100706.38;;;12.94;100.00
72959;BME280;60008;50.826;6.896;2022-10-16T05:27:32;100704.75;;;12.93;100.00
72959;BME280;60008;50.826;6.896;2022-10-16T05:30:18;100711.91;;;12.93;100.00
72959;BME280;60008;50.826;6.896;2022-10-16T05:33:03;100723.25;;;12.87;100.00
72959;BME280;60008;50.826;6.896;2022-10-16T05:35:48;100714.31;;;12.80;100.00
72959;BME280;60008;50.826;6.896;2022-10-16T05:38:37;100719.31;;;12.75;100.00
72959;BME280;60008;50.826;6.896;2022-10-16T05:41:22;100714.03;;;12.67;100.00
72959;BME280;60008;50.826;6.896;2022-10-16T05:44:10;100705.94;;;12.60;100.00
72959;BME280;60008;50.826;6.896;2022-10-16T05:46:55;100714.25;;;12.57;100.00
72959;BME280;60008;50.826;6.896;2022-10-16T05:49:40;100720.75;;;12.54;100.00
72959;BME280;60008;50.826;6.896;2022-10-16T05:52:26;100731.94;;;12.50;100.00
72959;BME280;60008;50.826;6.896;2022-10-16T05:55:11;100745.41;;;12.40;100.00
72959;BME280;60008;50.826;6.896;2022-10-16T05:57:56;100741.28;;;12.30;100.00
72959;BME280;60008;50.826;6.896;2022-10-16T06:00:42;100753.97;;;12.20;100.00
72959;BME280;60008;50.826;6.896;2022-10-16T06:03:27;100761.44;;;12.16;100.00
72959;BME280;60008;50.826;6.896;2022-10-16T06:06:18;100754.78;;;12.12;100.00
72959;BME280;60008;50.826;6.896;2022-10-16T06:09:03;100757.81;;;12.09;100.00
72959;BME280;60008;50.826;6.896;2022-10-16T06:11:49;100775.25;;;12.04;100.00
72959;BME280;60008;50.826;6.896;2022-10-16T06:14:34;100790.03;;;11.98;100.00
72959;BME280;60008;50.826;6.896;2022-10-16T06:17:19;100782.88;;;11.99;100.00
72959;BME280;60008;50.826;6.896;2022-10-16T06:20:05;100790.03;;;11.98;100.00
72959;BME280;60008;50.826;6.896;2022-10-16T06:22:49;100779.75;;;11.95;100.00
72959;BME280;60008;50.826;6.896;2022-10-16T06:25:35;100779.06;;;11.93;100.00
72959;BME280;60008;50.826;6.896;2022-10-16T06:28:20;100791.34;;;11.94;100.00
72959;BME280;60008;50.826;6.896;2022-10-16T06:31:06;100787.69;;;12.03;100.00
72959;BME280;60008;50.826;6.896;2022-10-16T06:33:53;100803.78;;;12.02;100.00
72959;BME280;60008;50.826;6.896;2022-10-16T06:36:39;100803.94;;;12.16;100.00
72959;BME280;60008;50.826;6.896;2022-10-16T06:39:24;100812.72;;;12.25;100.00
72959;BME280;60008;50.826;6.896;2022-10-16T06:42:09;100814.75;;;12.23;100.00
72959;BME280;60008;50.826;6.896;2022-10-16T06:44:54;100812.72;;;12.25;100.00
72959;BME280;60008;50.826;6.896;2022-10-16T06:47:39;100827.81;;;12.32;100.00
72959;BME280;60008;50.826;6.896;2022-10-16T06:50:24;100832.47;;;12.38;100.00
72959;BME280;60008;50.826;6.896;2022-10-16T06:53:09;100831.44;;;12.47;100.00
72959;BME280;60008;50.826;6.896;2022-10-16T06:55:55;100826.75;;;12.58;100.00
72959;BME280;60008;50.826;6.896;2022-10-16T06:58:41;100840.53;;;12.61;100.00
72959;BME280;60008;50.826;6.896;2022-10-16T07:01:27;100846.19;;;12.66;100.00
72959;BME280;60008;50.826;6.896;2022-10-16T07:04:12;100836.19;;;12.68;100.00
72959;BME280;60008;50.826;6.896;2022-10-16T07:06:57;100849.66;;;12.67;100.00
72959;BME280;60008;50.826;6.896;2022-10-16T07:09:42;100850.41;;;12.83;100.00
72959;BME280;60008;50.826;6.896;2022-10-16T07:12:27;100859.81;;;13.02;100.00
72959;BME280;60008;50.826;6.896;2022-10-16T07:15:12;100853.50;;;13.03;100.00
72959;BME280;60008;50.826;6.896;2022-10-16T07:17:57;100863.69;;;12.91;100.00
72959;BME280;60008;50.826;6.896;2022-10-16T07:20:42;100869.03;;;12.83;100.00
72959;BME280;60008;50.826;6.896;2022-10-16T07:23:27;100884.16;;;12.83;100.00
72959;BME280;60008;50.826;6.896;2022-10-16T07:26:12;100880.81;;;12.89;100.00
72959;BME280;60008;50.826;6.896;2022-10-16T07:28:57;100880.63;;;12.98;100.00
72959;BME280;60008;50.826;6.896;2022-10-16T07:31:43;100893.91;;;13.06;100.00
72959;BME280;60008;50.826;6.896;2022-10-16T07:34:27;100893.03;;;13.22;100.00
72959;BME280;60008;50.826;6.896;2022-10-16T07:37:13;100891.94;;;13.39;100.00
72959;BME280;60008;50.826;6.896;2022-10-16T07:39:57;100899.16;;;13.53;100.00
72959;BME280;60008;50.826;6.896;2022-10-16T07:42:43;100897.28;;;13.62;100.00
72959;BME280;60008;50.826;6.896;2022-10-16T07:45:28;100912.81;;;13.58;100.00
72959;BME280;60008;50.826;6.896;2022-10-16T07:48:13;100919.47;;;13.54;100.00
72959;BME280;60008;50.826;6.896;2022-10-16T07:51:01;100925.28;;;13.58;100.00
72959;BME280;60008;50.826;6.896;2022-10-16T07:53:48;100928.84;;;13.50;100.00
72959;BME280;60008;50.826;6.896;2022-10-16T07:56:33;100931.53;;;13.42;100.00
72959;BME280;60008;50.826;6.896;2022-10-16T07:59:18;100938.19;;;13.38;100.00
72959;BME280;60008;50.826;6.896;2022-10-16T08:02:03;100945.88;;;13.33;100.00
72959;BME280;60008;50.826;6.896;2022-10-16T08:04:48;100949.88;;;13.29;100.00
72959;BME280;60008;50.826;6.896;2022-10-16T08:07:34;100938.44;;;13.29;100.00
72959;BME280;60008;50.826;6.896;2022-10-16T08:10:21;100954.19;;;13.38;100.00
72959;BME280;60008;50.826;6.896;2022-10-16T08:13:06;100958.28;;;13.49;100.00
72959;BME280;60008;50.826;6.896;2022-10-16T08:15:56;100949.59;;;13.55;100.00
72959;BME280;60008;50.826;6.896;2022-10-16T08:18:42;100955.53;;;13.65;100.00
72959;BME280;60008;50.826;6.896;2022-10-16T08:21:27;100959.81;;;13.74;100.00
72959;BME280;60008;50.826;6.896;2022-10-16T08:24:12;100955.31;;;13.97;100.00
72959;BME280;60008;50.826;6.896;2022-10-16T08:26:57;100962.69;;;14.18;100.00
72959;BME280;60008;50.826;6.896;2022-10-16T08:29:42;100966.53;;;14.38;100.00
72959;BME280;60008;50.826;6.896;2022-10-16T08:32:27;100966.75;;;14.51;100.00
72959;BME280;60008;50.826;6.896;2022-10-16T08:35:13;100980.69;;;14.76;100.00
72959;BME280;60008;50.826;6.896;2022-10-16T08:37:59;100983.31;;;14.99;100.00
72959;BME280;60008;50.826;6.896;2022-10-16T08:40:44;100981.75;;;15.04;100.00
72959;BME280;60008;50.826;6.896;2022-10-16T08:43:52;100988.28;;;15.45;100.00
72959;BME280;60008;50.826;6.896;2022-10-16T08:47:13;100991.66;;;15.69;100.00
72959;BME280;60008;50.826;6.896;2022-10-16T08:50:10;100991.56;;;15.77;99.95
72959;BME280;60008;50.826;6.896;2022-10-16T08:52:56;100988.88;;;15.91;96.59
72959;BME280;60008;50.826;6.896;2022-10-16T08:55:45;100988.66;;;15.93;95.79
72959;BME280;60008;50.826;6.896;2022-10-16T08:58:30;100997.72;;;15.92;94.92
72959;BME280;60008;50.826;6.896;2022-10-16T09:01:17;101000.69;;;16.03;93.17
72959;BME280;60008;50.826;6.896;2022-10-16T09:13:06;101002.41;;;17.37;83.90
72959;BME280;60008;50.826;6.896;2022-10-16T09:16:11;101008.41;;;18.92;75.91
72959;BME280;60008;50.826;6.896;2022-10-16T09:19:11;101003.03;;;18.60;76.57
72959;BME280;60008;50.826;6.896;2022-10-16T09:22:04;101015.22;;;18.95;75.43
72959;BME280;60008;50.826;6.896;2022-10-16T09:25:00;101008.00;;;18.63;77.08
72959;BME280;60008;50.826;6.896;2022-10-16T09:27:52;101004.47;;;19.01;75.43
72959;BME280;60008;50.826;6.896;2022-10-16T09:30:38;100999.03;;;18.16;79.63
72959;BME280;60008;50.826;6.896;2022-10-16T09:33:29;101005.78;;;17.99;81.46
72959;BME280;60008;50.826;6.896;2022-10-16T09:36:15;101008.59;;;18.65;77.16
72959;BME280;60008;50.826;6.896;2022-10-16T09:39:04;101016.66;;;19.81;73.14
72959;BME280;60008;50.826;6.896;2022-10-16T09:41:51;101011.09;;;19.76;72.09
72959;BME280;60008;50.826;6.896;2022-10-16T09:44:36;101008.81;;;18.76;74.77
72959;BME280;60008;50.826;6.896;2022-10-16T09:47:24;101006.06;;;18.17;75.68
72959;BME280;60008;50.826;6.896;2022-10-16T09:50:26;101011.16;;;17.93;77.91
72959;BME280;60008;50.826;6.896;2022-10-16T09:53:13;101016.94;;;18.03;77.63
72959;BME280;60008;50.826;6.896;2022-10-16T09:55:58;101022.81;;;18.26;74.46
72959;BME280;60008;50.826;6.896;2022-10-16T09:58:49;101014.19;;;18.57;71.99
72959;BME280;60008;50.826;6.896;2022-10-16T10:01:38;101019.28;;;18.32;75.25
72959;BME280;60008;50.826;6.896;2022-10-16T10:04:24;101014.56;;;18.47;73.04
72959;BME280;60008;50.826;6.896;2022-10-16T10:07:18;101013.31;;;18.43;73.78
72959;BME280;60008;50.826;6.896;2022-10-16T10:10:05;101001.91;;;18.02;72.11
72959;BME280;60008;50.826;6.896;2022-10-16T10:12:51;101011.72;;;18.55;73.03
72959;BME280;60008;50.826;6.896;2022-10-16T10:15:41;101007.97;;;19.02;67.96
72959;BME280;60008;50.826;6.896;2022-10-16T10:18:26;100993.72;;;19.01;69.01
72959;BME280;60008;50.826;6.896;2022-10-16T10:21:15;100989.03;;;19.54;67.40
72959;BME280;60008;50.826;6.896;2022-10-16T10:24:00;100980.03;;;19.16;66.72
72959;BME280;60008;50.826;6.896;2022-10-16T10:27:02;100993.34;;;18.91;70.12
72959;BME280;60008;50.826;6.896;2022-10-16T10:30:02;101005.94;;;18.84;68.46
72959;BME280;60008;50.826;6.896;2022-10-16T10:36:16;101013.69;;;19.45;63.47
72959;BME280;60008;50.826;6.896;2022-10-16T10:39:14;101008.78;;;20.55;62.71
72959;BME280;60008;50.826;6.896;2022-10-16T10:42:09;101011.34;;;21.90;56.98
72959;BME280;60008;50.826;6.896;2022-10-16T10:45:24;101010.19;;;20.58;60.65
72959;BME280;60008;50.826;6.896;2022-10-16T10:48:47;101008.88;;;19.60;62.44
72959;BME280;60008;50.826;6.896;2022-10-16T10:54:56;101008.34;;;19.25;64.74
72959;BME280;60008;50.826;6.896;2022-10-16T10:58:04;101006.59;;;19.57;62.75
72959;BME280;60008;50.826;6.896;2022-10-16T11:01:08;100999.53;;;19.69;60.24
72959;BME280;60008;50.826;6.896;2022-10-16T11:07:24;101015.03;;;19.74;60.69
72959;BME280;60008;50.826;6.896;2022-10-16T11:10:22;101009.81;;;20.16;59.74
72959;BME280;60008;50.826;6.896;2022-10-16T11:13:24;101009.97;;;19.97;61.64
72959;BME280;60008;50.826;6.896;2022-10-16T11:16:27;101010.00;;;20.28;60.59
72959;BME280;60008;50.826;6.896;2022-10-16T11:22:31;101014.25;;;20.73;59.72
72959;BME280;60008;50.826;6.896;2022-10-16T11:28:23;101010.53;;;21.90;57.61
72959;BME280;60008;50.826;6.896;2022-10-16T11:31:38;101017.19;;;24.03;49.23
72959;BME280;60008;50.826;6.896;2022-10-16T11:34:50;101007.03;;;24.71;46.04
72959;BME280;60008;50.826;6.896;2022-10-16T11:37:41;101012.34;;;22.90;48.75
72959;BME280;60008;50.826;6.896;2022-10-16T11:40:31;101010.22;;;21.07;57.40
72959;BME280;60008;50.826;6.896;2022-10-16T11:43:22;101015.59;;;20.58;60.20
72959;BME280;60008;50.826;6.896;2022-10-16T11:46:15;101013.09;;;19.94;59.84
72959;BME280;60008;50.826;6.896;2022-10-16T11:49:10;101019.03;;;19.65;63.58
72959;BME280;60008;50.826;6.896;2022-10-16T11:52:24;101027.38;;;19.94;62.71
72959;BME280;60008;50.826;6.896;2022-10-16T11:55:20;101031.81;;;19.76;62.46
72959;BME280;60008;50.826;6.896;2022-10-16T12:04:49;101021.25;;;19.68;64.83
72959;BME280;60008;50.826;6.896;2022-10-16T12:07:18;101027.78;;;19.40;64.07
72959;BME280;60008;50.826;6.896;2022-10-16T12:10:26;101026.91;;;19.46;65.56
72959;BME280;60008;50.826;6.896;2022-10-16T12:16:21;101029.78;;;19.51;61.96
72959;BME280;60008;50.826;6.896;2022-10-16T12:19:14;101023.16;;;19.60;62.97
72959;BME280;60008;50.826;6.896;2022-10-16T12:22:01;101025.00;;;19.60;64.63
72959;BME280;60008;50.826;6.896;2022-10-16T12:24:51;101026.25;;;19.64;63.85
72959;BME280;60008;50.826;6.896;2022-10-16T12:27:36;101024.03;;;19.35;64.27
72959;BME280;60008;50.826;6.896;2022-10-16T12:30:23;101015.75;;;19.30;64.86
72959;BME280;60008;50.826;6.896;2022-10-16T12:33:21;101016.84;;;19.16;66.71
72959;BME280;60008;50.826;6.896;2022-10-16T12:36:33;101012.50;;;19.15;68.11
72959;BME280;60008;50.826;6.896;2022-10-16T12:39:22;101002.34;;;19.17;67.38
72959;BME280;60008;50.826;6.896;2022-10-16T12:42:31;101008.38;;;19.06;64.83
72959;BME280;60008;50.826;6.896;2022-10-16T12:45:32;101010.25;;;18.92;65.17
72959;BME280;60008;50.826;6.896;2022-10-16T12:48:22;101009.22;;;18.99;66.28
72959;BME280;60008;50.826;6.896;2022-10-16T12:51:34;101008.78;;;19.16;66.19
72959;BME280;60008;50.826;6.896;2022-10-16T12:54:36;101007.72;;;19.23;65.23
72959;BME280;60008;50.826;6.896;2022-10-16T13:00:27;101012.88;;;19.44;64.47
72959;BME280;60008;50.826;6.896;2022-10-16T13:06:32;101011.44;;;19.42;65.74
72959;BME280;60008;50.826;6.896;2022-10-16T13:09:30;101005.81;;;19.43;64.28
72959;BME280;60008;50.826;6.896;2022-10-16T13:12:31;101005.84;;;19.30;63.84
72959;BME280;60008;50.826;6.896;2022-10-16T13:15:41;101010.84;;;19.20;68.08
72959;BME280;60008;50.826;6.896;2022-10-16T13:22:02;101021.56;;;19.33;67.72
72959;BME280;60008;50.826;6.896;2022-10-16T13:30:53;101025.53;;;19.18;67.01
72959;BME280;60008;50.826;6.896;2022-10-16T13:33:43;101024.91;;;19.16;66.92
72959;BME280;60008;50.826;6.896;2022-10-16T13:36:35;101031.75;;;19.05;67.98
72959;BME280;60008;50.826;6.896;2022-10-16T13:39:28;101037.72;;;19.00;68.67
72959;BME280;60008;50.826;6.896;2022-10-16T13:42:22;101024.47;;;19.19;65.83
72959;BME280;60008;50.826;6.896;2022-10-16T13:45:20;101020.56;;;19.21;67.27
72959;BME280;60008;50.826;6.896;2022-10-16T13:48:09;101013.94;;;19.17;65.12
72959;BME280;60008;50.826;6.896;2022-10-16T13:51:06;101020.56;;;19.21;68.29
72959;BME280;60008;50.826;6.896;2022-10-16T13:53:52;101024.06;;;19.22;71.20
72959;BME280;60008;50.826;6.896;2022-10-16T13:56:38;101021.59;;;19.20;68.79
72959;BME280;60008;50.826;6.896;2022-10-16T13:59:42;101014.53;;;19.26;66.77
72959;BME280;60008;50.826;6.896;2022-10-16T14:02:33;101015.78;;;19.23;70.42
72959;BME280;60008;50.826;6.896;2022-10-16T14:05:19;101017.44;;;19.24;70.87
72959;BME280;60008;50.826;6.896;2022-10-16T14:08:05;101018.47;;;19.17;71.23
72959;BME280;60008;50.826;6.896;2022-10-16T14:10:52;101027.19;;;19.12;71.24
72959;BME280;60008;50.826;6.896;2022-10-16T14:13:45;101029.00;;;19.25;71.70
72959;BME280;60008;50.826;6.896;2022-10-16T14:16:31;101018.06;;;19.26;71.71
72959;BME280;60008;50.826;6.896;2022-10-16T14:19:25;101019.53;;;19.09;73.42
72959;BME280;60008;50.826;6.896;2022-10-16T14:28:22;100999.69;;;19.03;73.74
72959;BME280;60008;50.826;6.896;2022-10-16T14:34:04;101008.34;;;19.19;72.57
72959;BME280;60008;50.826;6.896;2022-10-16T14:36:49;101010.63;;;19.22;73.58
72959;BME280;60008;50.826;6.896;2022-10-16T14:39:35;101004.22;;;19.23;73.61
72959;BME280;60008;50.826;6.896;2022-10-16T14:42:22;101020.34;;;19.23;73.21
72959;BME280;60008;50.826;6.896;2022-10-16T14:45:10;101018.28;;;19.18;73.06
72959;BME280;60008;50.826;6.896;2022-10-16T14:48:02;101011.25;;;19.17;73.67
72959;BME280;60008;50.826;6.896;2022-10-16T14:50:49;101007.13;;;19.21;73.15
72959;BME280;60008;50.826;6.896;2022-10-16T14:53:34;101019.09;;;19.25;73.83
72959;BME280;60008;50.826;6.896;2022-10-16T14:56:22;101016.22;;;19.20;72.87
72959;BME280;60008;50.826;6.896;2022-10-16T14:59:34;101016.22;;;19.14;74.29
72959;BME280;60008;50.826;6.896;2022-10-16T15:05:22;101017.50;;;18.91;77.97
72959;BME280;60008;50.826;6.896;2022-10-16T15:08:08;101020.38;;;18.90;76.87
72959;BME280;60008;50.826;6.896;2022-10-16T15:10:53;101018.94;;;18.81;76.91
72959;BME280;60008;50.826;6.896;2022-10-16T15:13:38;101010.28;;;18.72;78.04
72959;BME280;60008;50.826;6.896;2022-10-16T15:16:23;101020.59;;;18.69;78.02
72959;BME280;60008;50.826;6.896;2022-10-16T15:19:09;101020.59;;;18.69;76.40
72959;BME280;60008;50.826;6.896;2022-10-16T15:21:54;101021.00;;;18.66;78.09
72959;BME280;60008;50.826;6.896;2022-10-16T15:24:39;101029.28;;;18.58;79.88
72959;BME280;60008;50.826;6.896;2022-10-16T15:27:24;101034.22;;;18.48;80.13
72959;BME280;60008;50.826;6.896;2022-10-16T15:30:10;101036.44;;;18.37;81.62
72959;BME280;60008;50.826;6.896;2022-10-16T15:32:55;101031.06;;;18.37;80.18
72959;BME280;60008;50.826;6.896;2022-10-16T15:35:40;101024.47;;;18.33;79.79
72959;BME280;60008;50.826;6.896;2022-10-16T15:38:27;101016.81;;;18.30;80.77
72959;BME280;60008;50.826;6.896;2022-10-16T15:41:12;101022.59;;;18.27;81.03